Calistoga, California
Current Conditions -  °F | °C
As of 11:53 PM on Saturday 22 Nov 2014 (Local Time) from KSTS Reporting Station
Clear Clear  
Wind Chill: 50°   Ceiling: Unl
Heat Index: 50°   Visibility: 10mi
Dew Point: 46°   Wind: 8mph
Humidity: 86%   Direction: 350°N
Pressure: 30.25"   Gusts: NA
Location:  38.58°N, 122.58°W
Report Text: KSTS 230753Z AUTO 35007KT 10SM CLR 10/08 A3025 RMK AO2 SLP238 T01000078 402060100
Loading
Personal Weather Stations






























Interactive Weather Map New forecast layout! Learn more

10-Day Weather Forecast

Advertisements
Track Severe Weather on mobile